createdAt,value
2017-10-17T00:02:17.055Z,100095.15
2017-10-17T00:06:20.532Z,100095.95
2017-10-17T00:10:24.759Z,100086.80
2017-10-17T00:14:29.015Z,100081.75
2017-10-17T00:18:32.465Z,100076.02
2017-10-17T00:22:35.933Z,100078.33
2017-10-17T00:26:39.382Z,100075.19
2017-10-17T00:30:42.849Z,100077.52
2017-10-17T00:34:46.325Z,100073.52
2017-10-17T00:38:59.980Z,100070.38
2017-10-17T00:43:17.834Z,100066.81
2017-10-17T00:47:21.291Z,100063.13
2017-10-17T00:51:27.179Z,100066.67
2017-10-17T00:55:31.421Z,100064.08
2017-10-17T00:59:36.495Z,100066.81
2017-10-17T01:03:39.971Z,100070.63
2017-10-17T01:07:44.188Z,100067.89
2017-10-17T01:11:48.423Z,100065.81
2017-10-17T01:15:52.651Z,100062.53
2017-10-17T01:20:10.623Z,100058.70
2017-10-17T01:24:14.067Z,100046.55
2017-10-17T01:28:17.530Z,100039.30
2017-10-17T01:32:21.014Z,100040.26
2017-10-17T01:36:25.274Z,100040.80
2017-10-17T01:40:29.306Z,100041.76
2017-10-17T01:44:34.153Z,100050.19
2017-10-17T01:48:51.194Z,100046.50
2017-10-17T01:53:20.039Z,100045.27
2017-10-17T01:57:23.547Z,100038.58
2017-10-17T02:01:27.080Z,100032.70
2017-10-17T02:05:30.638Z,100026.00
2017-10-17T02:09:43.331Z,100020.37
2017-10-17T02:13:46.795Z,100025.28
2017-10-17T02:18:11.755Z,100029.10
2017-10-17T02:22:16.622Z,100022.28
2017-10-17T02:26:23.594Z,100026.24
2017-10-17T02:30:31.473Z,100015.99
2017-10-17T02:34:37.083Z,100023.50
2017-10-17T02:38:41.306Z,100021.31
2017-10-17T02:42:45.534Z,100014.89
2017-10-17T02:46:49.775Z,100017.76
2017-10-17T02:50:53.292Z,100012.81
2017-10-17T02:54:56.743Z,100020.73
2017-10-17T02:59:00.218Z,100026.19
2017-10-17T03:03:06.566Z,100024.13
2017-10-17T03:07:10.839Z,100024.00
2017-10-17T03:11:14.888Z,100011.02
2017-10-17T03:19:49.593Z,100015.25
2017-10-17T03:24:12.649Z,100012.34
2017-10-17T03:28:19.586Z,100000.60
2017-10-17T03:32:23.087Z,99998.41
2017-10-17T03:36:42.197Z,99997.59
2017-10-17T03:40:53.152Z,99995.68
2017-10-17T03:44:56.589Z,99988.98
2017-10-17T03:49:07.702Z,99982.16
2017-10-17T03:53:20.750Z,99989.94
2017-10-17T03:57:25.551Z,99998.14
2017-10-17T04:01:30.775Z,100000.59
2017-10-17T04:05:44.966Z,99996.73
2017-10-17T04:09:53.675Z,100000.00
2017-10-17T04:18:42.478Z,100008.33
2017-10-17T04:27:31.428Z,100007.51
2017-10-17T04:31:48.181Z,100010.65
2017-10-17T04:40:29.657Z,100007.88
2017-10-17T04:49:42.981Z,100011.83
2017-10-17T04:58:47.103Z,100032.03
2017-10-17T05:02:56.346Z,100037.90
2017-10-17T05:07:01.646Z,100035.30
2017-10-17T05:15:40.362Z,100035.44
2017-10-17T05:19:51.522Z,100032.70
2017-10-17T05:24:11.661Z,100031.44
2017-10-17T05:33:35.763Z,100040.30
2017-10-17T05:37:39.212Z,100033.20
2017-10-17T05:41:43.509Z,100032.80
2017-10-17T05:45:46.956Z,100030.06
2017-10-17T05:49:56.568Z,100043.95
2017-10-17T05:54:00.036Z,100046.31
2017-10-17T05:58:03.555Z,100043.23
2017-10-17T06:02:07.020Z,100056.81
2017-10-17T06:06:11.328Z,100044.06
2017-10-17T06:10:14.778Z,100047.67
2017-10-17T06:14:18.264Z,100050.73
2017-10-17T06:18:22.504Z,100054.23
2017-10-17T06:22:26.754Z,100060.31
2017-10-17T06:26:30.234Z,100063.09
2017-10-17T06:30:34.511Z,100070.52
2017-10-17T06:34:37.979Z,100076.74
2017-10-17T06:38:41.466Z,100079.52
2017-10-17T06:42:45.694Z,100077.34
2017-10-17T06:46:49.945Z,100081.17
2017-10-17T06:50:53.403Z,100086.95
2017-10-17T06:54:56.890Z,100089.41
2017-10-17T06:59:00.338Z,100095.70
2017-10-17T07:03:04.597Z,100094.20
2017-10-17T07:07:08.056Z,100099.53
2017-10-17T07:11:11.539Z,100090.51
2017-10-17T07:15:14.994Z,100098.16
2017-10-17T07:19:19.248Z,100094.06
2017-10-17T07:23:22.707Z,100100.38
2017-10-17T07:27:26.187Z,100098.06
2017-10-17T07:31:29.641Z,100103.52
2017-10-17T07:35:33.895Z,100098.57
2017-10-17T07:39:37.347Z,100100.25
2017-10-17T07:43:40.830Z,100094.37
2017-10-17T07:47:44.286Z,100088.49
2017-10-17T07:51:48.531Z,100092.88
2017-10-17T07:55:51.992Z,100090.27
2017-10-17T07:59:55.479Z,100094.78
2017-10-17T08:03:58.935Z,100088.91
2017-10-17T08:08:03.177Z,100094.64
2017-10-17T08:12:06.637Z,100099.16
2017-10-17T08:16:10.230Z,100087.13
2017-10-17T08:20:13.685Z,100085.13
2017-10-17T08:24:17.933Z,100095.28
2017-10-17T08:28:21.390Z,100080.97
2017-10-17T08:32:24.878Z,100080.03
2017-10-17T08:36:28.326Z,100067.76
2017-10-17T08:40:32.577Z,100068.20
2017-10-17T08:44:36.029Z,100073.27
2017-10-17T08:48:39.519Z,100064.37
2017-10-17T08:52:42.966Z,100064.11
2017-10-17T08:56:47.247Z,100062.02
2017-10-17T09:00:50.716Z,100055.45
2017-10-17T09:04:54.528Z,100048.75
2017-10-17T09:08:58.746Z,100053.41
2017-10-17T09:13:03.279Z,100061.33
2017-10-17T09:17:07.498Z,100064.58
2017-10-17T09:21:11.758Z,100069.22
2017-10-17T09:25:15.219Z,100061.56
2017-10-17T09:29:18.704Z,100058.97
2017-10-17T09:33:22.147Z,100062.66
2017-10-17T09:37:26.386Z,100057.87
2017-10-17T09:41:29.845Z,100058.83
2017-10-17T09:45:33.705Z,100057.05
2017-10-17T09:49:37.918Z,100055.69
2017-10-17T09:53:42.163Z,100054.01
2017-10-17T09:57:45.621Z,100053.46
2017-10-17T10:01:49.675Z,100057.14
2017-10-17T10:05:53.928Z,100060.16
2017-10-17T10:09:57.713Z,100067.27
2017-10-17T10:14:01.931Z,100068.63
2017-10-17T10:18:05.409Z,100067.80
2017-10-17T10:22:08.869Z,100063.70
2017-10-17T10:26:12.671Z,100064.77
2017-10-17T10:30:16.891Z,100062.03
2017-10-17T10:34:21.150Z,100062.16
2017-10-17T10:38:24.606Z,100062.16
2017-10-17T10:42:28.092Z,100057.52
2017-10-17T10:46:31.550Z,100054.37
2017-10-17T10:50:35.813Z,100051.23
2017-10-17T10:54:39.239Z,100044.94
2017-10-17T10:58:42.740Z,100043.58
2017-10-17T11:02:46.198Z,100043.71
2017-10-17T11:06:50.448Z,100034.14
2017-10-17T11:10:53.900Z,100031.28
2017-10-17T11:14:57.397Z,100023.75
2017-10-17T11:19:00.855Z,100016.78
2017-10-17T11:23:04.606Z,100005.44
2017-10-17T11:27:08.036Z,100007.35
2017-10-17T11:31:11.502Z,99997.92
2017-10-17T11:35:14.955Z,99992.73
2017-10-17T11:39:18.421Z,99990.81
2017-10-17T11:43:39.758Z,99986.86
2017-10-17T11:47:43.230Z,99969.66
2017-10-17T11:51:46.689Z,99968.20
2017-10-17T11:55:50.535Z,99959.45
2017-10-17T11:59:53.990Z,99953.88
2017-10-17T12:03:57.471Z,99950.88
2017-10-17T12:08:00.928Z,99943.66
2017-10-17T12:12:04.666Z,99936.14
2017-10-17T12:16:08.878Z,99930.39
2017-10-17T12:20:12.371Z,99920.03
2017-10-17T12:24:15.829Z,99918.09
2017-10-17T12:28:19.307Z,99913.09
2017-10-17T12:32:23.528Z,99906.94
2017-10-17T12:36:27.029Z,99899.14
2017-10-17T12:40:30.489Z,99892.88
2017-10-17T12:44:33.971Z,99882.09
2017-10-17T12:48:38.198Z,99882.72
2017-10-17T12:52:42.443Z,99878.85
2017-10-17T12:56:45.907Z,99880.48
2017-10-17T13:00:49.542Z,99866.64
2017-10-17T13:04:53.755Z,99867.33
2017-10-17T13:08:58.022Z,99861.66
2017-10-17T13:13:01.487Z,99864.13
2017-10-17T13:17:05.729Z,99851.67
2017-10-17T13:21:09.237Z,99851.13
2017-10-17T13:25:13.038Z,99842.65
2017-10-17T13:29:17.255Z,99844.42
2017-10-17T13:33:21.618Z,99840.52
2017-10-17T13:37:25.082Z,99824.49
2017-10-17T13:41:28.575Z,99819.50
2017-10-17T13:45:32.016Z,99818.38
2017-10-17T13:49:36.261Z,99817.14
2017-10-17T13:53:39.730Z,99806.86
2017-10-17T13:57:43.567Z,99801.41
2017-10-17T14:01:47.786Z,99797.95
2017-10-17T14:05:52.062Z,99800.42
2017-10-17T14:09:55.515Z,99794.82
2017-10-17T14:13:59.844Z,99793.27
2017-10-17T14:18:04.070Z,99799.28
2017-10-17T14:22:08.328Z,99789.03
2017-10-17T14:26:11.783Z,99787.80
2017-10-17T14:30:15.414Z,99783.53
2017-10-17T14:34:19.633Z,99778.75
2017-10-17T14:38:23.884Z,99780.15
2017-10-17T14:42:27.347Z,99775.61
2017-10-17T14:46:30.827Z,99769.50
2017-10-17T14:50:34.284Z,99776.09
2017-10-17T14:54:38.525Z,99780.98
2017-10-17T14:58:41.974Z,99780.94
2017-10-17T15:02:45.466Z,99781.89
2017-10-17T15:06:48.915Z,99773.80
2017-10-17T15:10:52.366Z,99779.42
2017-10-17T15:14:55.819Z,99779.44
2017-10-17T15:18:59.351Z,99780.93
2017-10-17T15:23:03.574Z,99777.63
2017-10-17T15:27:08.120Z,99775.17
2017-10-17T15:31:12.338Z,99781.34
2017-10-17T15:35:16.587Z,99775.45
2017-10-17T15:39:20.043Z,99771.19
2017-10-17T15:43:23.891Z,99772.70
2017-10-17T15:47:28.105Z,99763.67
2017-10-17T15:51:32.358Z,99761.34
2017-10-17T15:55:35.807Z,99749.98
2017-10-17T15:59:39.568Z,99744.08
2017-10-17T16:03:43.031Z,99741.09
2017-10-17T16:07:46.516Z,99740.52
2017-10-17T16:11:49.970Z,99747.93
2017-10-17T16:15:54.237Z,99746.55
2017-10-17T16:19:57.699Z,99744.75
2017-10-17T16:24:01.190Z,99749.55
2017-10-17T16:28:04.628Z,99744.91
2017-10-17T16:32:08.886Z,99741.59
2017-10-17T16:36:12.343Z,99747.77
2017-10-17T16:40:15.813Z,99750.78
2017-10-17T16:44:19.262Z,99750.99
2017-10-17T16:48:23.513Z,99747.99
2017-10-17T16:52:26.968Z,99743.76
2017-10-17T16:56:30.463Z,99748.41
2017-10-17T17:00:33.939Z,99739.50
2017-10-17T17:04:37.766Z,99741.14
2017-10-17T17:08:41.226Z,99743.20
2017-10-17T17:12:44.710Z,99745.94
2017-10-17T17:16:48.170Z,99751.11
2017-10-17T17:20:51.667Z,99748.92
2017-10-17T17:24:55.900Z,99752.34
2017-10-17T17:28:59.384Z,99751.12
2017-10-17T17:33:03.613Z,99748.93
2017-10-17T17:37:07.868Z,99744.02
2017-10-17T17:41:11.330Z,99750.55
2017-10-17T17:45:14.814Z,99744.26
2017-10-17T17:49:18.242Z,99748.64
2017-10-17T17:53:21.757Z,99745.50
2017-10-17T17:57:25.206Z,99736.47
2017-10-17T18:01:29.004Z,99741.23
2017-10-17T18:05:33.232Z,99739.87
2017-10-17T18:09:37.755Z,99736.72
2017-10-17T18:13:41.976Z,99738.39
2017-10-17T18:17:46.219Z,99739.45
2017-10-17T18:21:49.683Z,99733.17
2017-10-17T18:25:53.175Z,99725.52
2017-10-17T18:29:56.638Z,99725.24
2017-10-17T18:34:00.115Z,99724.28
2017-10-17T18:38:03.571Z,99725.80
2017-10-17T18:42:07.055Z,99726.75
2017-10-17T18:46:11.275Z,99723.61
2017-10-17T18:50:15.527Z,99727.70
2017-10-17T18:54:18.992Z,99721.02
2017-10-17T18:58:23.246Z,99720.05
2017-10-17T19:02:26.675Z,99719.64
2017-10-17T19:06:30.470Z,99709.66
2017-10-17T19:10:33.966Z,99708.41
2017-10-17T19:14:38.232Z,99711.14
2017-10-17T19:18:41.697Z,99713.05
2017-10-17T19:22:45.956Z,99717.16
2017-10-17T19:26:49.410Z,99709.09
2017-10-17T19:30:52.886Z,99708.28
2017-10-17T19:34:56.336Z,99712.37
2017-10-17T19:39:00.616Z,99701.98
2017-10-17T19:43:04.083Z,99703.35
2017-10-17T19:47:08.333Z,99698.84
2017-10-17T19:51:11.795Z,99693.92
2017-10-17T19:55:15.631Z,99700.77
2017-10-17T19:59:19.845Z,99695.43
2017-10-17T20:03:24.112Z,99694.98
2017-10-17T20:07:27.574Z,99696.50
2017-10-17T20:11:31.846Z,99696.64
2017-10-17T20:15:35.299Z,99704.02
2017-10-17T20:19:39.150Z,99697.19
2017-10-17T20:23:42.599Z,99700.33
2017-10-17T20:27:46.090Z,99695.00
2017-10-17T20:31:49.547Z,99697.33
2017-10-17T20:35:53.849Z,99701.84
2017-10-17T20:39:57.299Z,99692.41
2017-10-17T20:44:00.778Z,99686.37
2017-10-17T20:48:04.219Z,99692.39
2017-10-17T20:52:07.693Z,99698.95
2017-10-17T20:56:11.154Z,99690.05
2017-10-17T21:00:14.631Z,99692.80
2017-10-17T21:04:18.098Z,99694.14
2017-10-17T21:08:21.860Z,99688.65
2017-10-17T21:12:25.310Z,99690.44
2017-10-17T21:16:28.781Z,99689.76
2017-10-17T21:20:32.244Z,99683.72
2017-10-17T21:24:36.084Z,99685.81
2017-10-17T21:28:40.294Z,99684.42
2017-10-17T21:32:43.774Z,99675.39
2017-10-17T21:36:47.258Z,99675.23
2017-10-17T21:40:50.738Z,99670.61
2017-10-17T21:44:54.194Z,99666.63
2017-10-17T21:48:57.682Z,99654.05
2017-10-17T21:53:01.134Z,99643.95
2017-10-17T21:57:04.627Z,99642.58
2017-10-17T22:01:08.090Z,99634.63
2017-10-17T22:05:11.573Z,99636.41
2017-10-17T22:09:15.802Z,99631.06
2017-10-17T22:13:20.046Z,99635.03
2017-10-17T22:17:23.499Z,99633.38
2017-10-17T22:21:26.986Z,99639.12
2017-10-17T22:25:30.443Z,99635.02
2017-10-17T22:29:34.941Z,99635.41
2017-10-17T22:33:38.391Z,99637.87
2017-10-17T22:37:42.632Z,99639.92
2017-10-17T22:41:46.093Z,99637.70
2017-10-17T22:45:49.534Z,99633.45
2017-10-17T22:49:52.990Z,99623.45
2017-10-17T22:53:56.474Z,99621.81
2017-10-17T22:57:59.918Z,99622.09
2017-10-17T23:02:04.175Z,99617.84
2017-10-17T23:06:08.460Z,99614.28
2017-10-17T23:10:12.318Z,99611.28
2017-10-17T23:14:16.523Z,99608.69
2017-10-17T23:18:38.175Z,99604.87
2017-10-17T23:22:42.401Z,99611.81
2017-10-17T23:26:46.695Z,99605.53
2017-10-17T23:30:50.164Z,99607.98
2017-10-17T23:34:53.952Z,99598.98
2017-10-17T23:38:57.416Z,99595.16
2017-10-17T23:43:00.912Z,99596.11
2017-10-17T23:47:04.374Z,99599.09
2017-10-17T23:51:08.183Z,99600.31
2017-10-17T23:55:12.414Z,99600.19
2017-10-17T23:59:16.227Z,99599.37
